Tiempo atmosférico en la estación meteorológica de Abia De Obispalia, Cuenca (1020 m.)



Fecha
DESCASC
Temp. máxima en grados centígrados (hora)
DESCASC
Temp. mínima en grados centígrados (hora)
DESCASC
Temp. media en grados centígrados
DESCASC
Racha de viento máxima en m/sg (hora)
DESCASC
Velocidad máxima media en intervalos de 10 minutos(hora)
DESCASC
Precipitaciones diarias en mm
DESCASC
Precipitaciones de 00:00 a 06:00 en mm
DESCASC
Precipitaciones de 06:00 a 12:00 en mm
DESCASC
Precipitaciones de 12:00 a 18:00 en mm
DESCASC
Precipitaciones de 18:00 a 24:00 en mm
DESCASC
18-01-2018 15.2 (17:00) -2.5 (07:10) 6.3 5.83 (10:50) 3.06 (10:50) 0 0 0 0 0
17-01-2018 12.3 (15:00) 0.6 (00:20) 6.5 10.28 (14:00) 6.11 (13:50) 0 0 0 0 0
16-01-2018 12.2 (14:30) -3 (06:20) 4.6 5.28 (17:00) 3.06 (17:00) 0 0 0 0 0
15-01-2018 9.4 (14:40) -2.6 (04:10) 3.4 4.72 (15:30) 2.5 (15:40) 0 0 0 0 0
14-01-2018 5.4 (15:10) -0.9 (-00:0) 2.3 7.22 (02:20) 3.89 (01:10) 0 0 0 0 0
13-01-2018 7.3 (14:50) -2.2 (-00:0) 2.6 8.06 (16:00) 5 (13:10) 0 0 0 0 0
12-01-2018 8.2 (14:30) -2.3 (-00:0) 2.9 6.67 (14:00) 4.17 (14:00) 0 0 0 0 0
11-01-2018 5.9 (16:10) -0.6 (-00:0) 2.7 11.39 (13:50) 6.11 (13:40) 0 0 0 0 0
10-01-2018 4.9 (16:40) 1.3 (00:00) 3.1 11.11 (21:00) 5.56 (21:00) 0 0 0 0 0
09-01-2018 2.4 (15:50) -4.6 (-00:0) -1.1 6.39 (15:50) 2.5 (17:10) 0 0 0 0 0
08-01-2018 8.1 (14:30) -3.1 (-00:0) 2.5 5.83 (11:30) 3.33 (10:20) 0 0 0 0 0
07-01-2018 1.3 (17:00) -2.5 (-00:0) -0.6 7.5 (12:30) 4.44 (12:40) 0 0 0 0 0
06-01-2018 7.1 (13:00) -0.2 (00:00) 3.4 10.83 (04:00) 6.11 (08:40) 0 0 0 0 0
05-01-2018 8.2 (13:40) 5.7 (00:00) 6.9 8.33 (09:10) 4.72 (09:10) 0 0 0 0 0
04-01-2018 8.5 (16:20) 7.3 (10:30) 7.9 7.5 (14:10) 4.17 (14:10) 0 0 0 0 0
03-01-2018 9 (16:40) 6.1 (00:00) 7.5 5.83 (14:40) 3.33 (14:40) 0 0 0 0 0
02-01-2018 8.8 (16:10) 1.7 (00:00) 5.3 8.06 (04:30) 4.44 (04:30) 0 0 0 0 0
01-01-2018 8.2 (16:30) -2.7 (-00:0) 2.7 10.28 (14:50) 5.83 (14:50) 0 0 0 0 0
31-12-2017 8.3 (15:00) 3.1 (00:00) 5.7 14.72 (20:20) 7.78 (20:20) 0.2 0 0 0.2 0
30-12-2017 10.3 (15:50) 2.8 (00:00) 6.6 8.33 (07:30) 4.72 (07:30) 0 0 0 0 0
29-12-2017 10.9 (16:10) 4.2 (00:00) 7.5 8.06 (13:50) 4.44 (15:50) 0 0 0 0 0
28-12-2017 9.9 (16:40) 3.1 (00:00) 6.5 12.5 (17:00) 6.39 (12:20) 0 0 0 0 0
27-12-2017 7.8 (15:50) 2 (00:00) 4.9 15.28 (04:10) 8.33 (04:00) 9 9 0 0 0
26-12-2017 5.3 (06:00) 2.4 (00:00) 3.9 10.56 (23:59) 5.56 (14:40) 2 1.8 0 0 0.2
25-12-2017 9.3 (15:50) -1.4 (-00:0) 4 6.67 (16:30) 2.78 (22:00) 0 0 0 0 0
24-12-2017 13.7 (14:50) 0.3 (00:00) 7 6.39 (13:00) 4.17 (00:40) 0 0 0 0 0
23-12-2017 12.6 (13:40) -2.3 (-00:0) 5.2 11.67 (12:00) 7.22 (14:40) 0 0 0 0 0
22-12-2017 13.1 (16:20) -0.2 (00:00) 6.5 7.78 (15:10) 4.17 (13:30) 0 0 0 0 0
21-12-2017 12.8 (14:00) -3.4 (-00:0) 4.7 4.17 (16:10) 2.5 (16:20) 0 0 0 0 0

Gráficas

Temp. máximas Temp. mínimas Temp. medias Precipitaciones Rachas de viento máximas Velocidades máximas media en intervalos de 10 minutos

Datos horarios

Fecha y hora oficial Temperatura (ºC) Velocidad del viento (km/h) Dirección del viento Racha (km/h) Dirección de racha Precipitación (mm) Presión (hPa) Tendencia (hPa) Humedad (%)
2018-01-19 23:00:00 4 3 Noroeste 17 Norte 0 -- -- 84
2018-01-19 22:00:00 4.7 6 Norte 14 Norte 0 -- -- 80
2018-01-19 21:00:00 4.7 4 Noroeste 9 Noroeste 0 -- -- 77
2018-01-19 20:00:00 5.9 3 Noroeste 9 Noroeste 0 -- -- 70
2018-01-19 19:00:00 7.4 3 Noroeste 12 Norte 0 -- -- 63
2018-01-19 18:00:00 9.5 5 Norte 29 Noroeste 0 -- -- 58
2018-01-19 17:00:00 13.6 14 Norte 29 Noroeste 0 -- -- 47
2018-01-19 16:00:00 13.4 14 Norte 26 Norte 0 -- -- 45
2018-01-19 15:00:00 14 14 Norte 28 Norte 0 -- -- 45
2018-01-19 14:00:00 14.5 15 Norte 23 Norte 0 -- -- 46
2018-01-19 13:00:00 13.7 5 Sudoeste 10 Sudoeste 0 -- -- 51
2018-01-19 12:00:00 11.3 3 Noroeste 6 Noroeste 0 -- -- 53
2018-01-19 11:00:00 7.9 2 Noroeste 5 Noroeste 0 -- -- 65
2018-01-19 10:00:00 4.1 0 Calma 4 Norte 0 -- -- 80
2018-01-19 09:00:00 2 2 Oeste 12 Norte 0 -- -- 81
2018-01-19 08:00:00 2.8 3 Noroeste 7 Noroeste 0 -- -- 76
2018-01-19 07:00:00 3.5 0 Calma 14 Norte 0 -- -- 72
2018-01-19 06:00:00 3.1 4 Norte 10 Norte 0 -- -- 72
2018-01-19 05:00:00 2.5 0 Calma 5 Oeste 0 -- -- 75
2018-01-19 04:00:00 2.5 3 Norte 8 Norte 0 -- -- 77
2018-01-19 03:00:00 0.8 0 Calma 4 Sur 0 -- -- 88
2018-01-19 02:00:00 2 3 Sudeste 6 Sur 0 -- -- 84
2018-01-19 01:00:00 3.4 3 Norte 6 Norte 0 -- -- 80
2018-01-19 00:00:00 1.6 0 Calma 4 Sudeste 0 -- -- 95
2018-01-18 23:00:00 0.9 0 Calma 3 Sur 0 -- -- 94
2018-01-18 22:00:00 1.2 0 Calma 4 Sur 0 -- -- 91
2018-01-18 21:00:00 2.6 0 Calma 4 Norte 0 -- -- 86
2018-01-18 20:00:00 7 5 Sudoeste 12 Sur 0 -- -- 73
2018-01-18 19:00:00 6.8 7 Sudoeste 9 Sudoeste 0 -- -- 77
2018-01-18 18:00:00 9.4 4 Sudoeste 10 Sudoeste 0 -- -- 68
2018-01-18 17:00:00 15.2 4 Sudoeste 16 Sudoeste 0 -- -- 49
2018-01-18 16:00:00 14.9 5 Sudoeste 11 Oeste 0 -- -- 48
2018-01-18 15:00:00 15.1 4 Oeste 13 Sudoeste 0 -- -- 46
2018-01-18 14:00:00 14.6 2 Noroeste 6 Noroeste 0 -- -- 37
2018-01-18 13:00:00 12.9 2 Nordeste 10 Sudeste 0 -- -- 43
2018-01-18 12:00:00 11 6 Sudeste 14 Sudeste 0 -- -- 53
2018-01-18 11:00:00 8 7 Sudeste 21 Sur 0 -- -- 70
2018-01-18 10:00:00 4.4 6 Este 14 Este 0 -- -- 71
2018-01-18 09:00:00 -1 0 Calma 4 Norte 0 -- -- 88
2018-01-18 08:00:00 -1.7 0 Calma 4 Noroeste 0 -- -- 89
2018-01-18 07:00:00 -2.3 0 Calma 3 Norte 0 -- -- 90
2018-01-18 06:00:00 -1.9 0 Calma 3 Noroeste 0 -- -- 92
2018-01-18 05:00:00 -1.9 0 Calma 3 Este 0 -- -- 91
2018-01-18 04:00:00 -0.9 0 Calma 6 Este 0 -- -- 86
2018-01-18 03:00:00 1.2 3 Sudeste 11 Nordeste 0 -- -- 81
2018-01-18 02:00:00 2.1 2 Nordeste 9 Nordeste 0 -- -- 84
2018-01-18 01:00:00 1.4 3 Sudeste 8 Nordeste 0 -- -- 89
2018-01-18 00:00:00 1.6 0 Calma 5 Sudeste 0 -- -- 88
2018-01-17 23:00:00 2.2 2 Noroeste 8 Norte 0 -- -- 87
2018-01-17 22:00:00 3.6 4 Norte 15 Norte 0 -- -- 82
2018-01-17 21:00:00 4 3 Norte 9 Norte 0 -- -- 81
2018-01-17 20:00:00 4.4 0 Calma 12 Norte 0 -- -- 75
2018-01-17 19:00:00 6.1 4 Norte 20 Norte 0 -- -- 69
2018-01-17 18:00:00 7.9 8 Norte 25 Norte 0 -- -- 63
2018-01-17 17:00:00 12 12 Norte 32 Noroeste 0 -- -- 47
2018-01-17 16:00:00 11.9 16 Norte 34 Norte 0 -- -- 51
2018-01-17 15:00:00 12.3 16 Norte 36 Norte 0 -- -- 50
2018-01-17 14:00:00 11.1 21 Norte 37 Norte 0 -- -- 59
2018-01-17 13:00:00 10.4 17 Norte 31 Norte 0 -- -- 64
2018-01-17 12:00:00 8.8 19 Norte 32 Norte 0 -- -- 72
2018-01-17 11:00:00 7.2 14 Norte 25 Norte 0 -- -- 84
2018-01-17 10:00:00 4.3 6 Norte 15 Norte 0 -- -- 100
2018-01-17 09:00:00 1.9 0 Calma 9 Noroeste 0 -- -- 100
2018-01-17 08:00:00 2.5 3 Norte 8 Noroeste 0 -- -- 100
2018-01-17 07:00:00 3.8 2 Noroeste 14 Norte 0 -- -- 100
2018-01-17 06:00:00 4 5 Norte 11 Norte 0 -- -- 100
2018-01-17 05:00:00 3.5 2 Noroeste 8 Oeste 0 -- -- 100
2018-01-17 04:00:00 3.3 0 Calma 12 Noroeste 0 -- -- 100
2018-01-17 03:00:00 4.1 4 Noroeste 10 Norte 0 -- -- 100
2018-01-17 02:00:00 4.5 6 Noroeste 13 Noroeste 0 -- -- 100
2018-01-17 01:00:00 3.9 8 Noroeste 14 Noroeste 0 -- -- 100
2018-01-17 00:00:00 1.1 0 Calma 8 Noroeste 0 -- -- 98
2018-01-16 23:00:00 1.6 2 Sudoeste 6 Noroeste 0 -- -- 95
2018-01-16 22:00:00 3.3 0 Calma 7 Sudoeste 0 -- -- 97
2018-01-16 21:00:00 3 0 Calma 6 Oeste 0 -- -- 93
2018-01-16 20:00:00 4.9 3 Oeste 8 Oeste 0 -- -- 95
2018-01-16 19:00:00 6.4 5 Oeste 16 Oeste 0 -- -- 88
2018-01-16 18:00:00 7.8 9 Noroeste 17 Noroeste 0 -- -- 84
2018-01-16 17:00:00 11.1 11 Oeste 19 Oeste 0 -- -- 70
2018-01-16 16:00:00 11.7 8 Noroeste 17 Noroeste 0 -- -- 67
2018-01-16 15:00:00 11.9 10 Noroeste 17 Noroeste 0 -- -- 64
2018-01-16 14:00:00 11.6 6 Oeste 14 Oeste 0 -- -- 63
2018-01-16 13:00:00 9.9 4 Oeste 9 Sudoeste 0 -- -- 66
2018-01-16 12:00:00 7.5 4 Oeste 11 Noroeste 0 -- -- 71
2018-01-16 11:00:00 4.6 5 Noroeste 11 Oeste 0 -- -- 79
2018-01-16 10:00:00 1.7 3 Oeste 6 Oeste 0 -- -- 94
2018-01-16 09:00:00 -2.4 0 Calma 2 Sudoeste 0 -- -- 100
2018-01-16 08:00:00 -2.9 0 Calma 2 Sur 0 -- -- 99
2018-01-16 07:00:00 -2.7 0 Calma 2 Oeste 0 -- -- 99
2018-01-16 06:00:00 -2.7 0 Calma 3 Norte 0 -- -- 97
2018-01-16 05:00:00 -2 0 Calma 4 Noroeste 0 -- -- 98
2018-01-16 04:00:00 -2.1 0 Calma 5 Noroeste 0 -- -- 98
2018-01-16 03:00:00 -2.5 0 Calma 2 Noroeste 0 -- -- 97
2018-01-16 02:00:00 -1.9 0 Calma 2 Sudoeste 0 -- -- 95
2018-01-16 01:00:00 -0.6 0 Calma 8 Noroeste 0 -- -- 94
2018-01-16 00:00:00 -1.3 2 Oeste 8 Oeste 0 -- -- 98
2018-01-15 23:00:00 -1.5 0 Calma 3 Sudoeste 0 -- -- 95
2018-01-15 22:00:00 -0.4 3 Sudoeste 5 Oeste 0 -- -- 96
2018-01-15 21:00:00 0 2 Oeste 6 Oeste 0 -- -- 95
2018-01-15 20:00:00 1.3 0 Calma 10 Oeste 0 -- -- 84
2018-01-15 19:00:00 3.7 5 Noroeste 13 Noroeste 0 -- -- 77
2018-01-15 18:00:00 4.6 4 Noroeste 15 Noroeste 0 -- -- 72
2018-01-15 17:00:00 7.3 5 Noroeste 17 Noroeste 0 -- -- 65
2018-01-15 16:00:00 8.6 8 Noroeste 17 Noroeste 0 -- -- 57
2018-01-15 15:00:00 9.2 6 Noroeste 13 Noroeste 0 -- -- 54
2018-01-15 14:00:00 8.9 4 Noroeste 9 Noroeste 0 -- -- 57
2018-01-15 13:00:00 7.5 5 Noroeste 10 Noroeste 0 -- -- 64
2018-01-15 12:00:00 6.1 5 Norte 10 Norte 0 -- -- 70
2018-01-15 11:00:00 4.4 3 Norte 6 Nordeste 0 -- -- 76
2018-01-15 10:00:00 1.7 3 Este 8 Sudeste 0 -- -- 87
2018-01-15 09:00:00 -1.9 3 Norte 10 Norte 0 -- -- 97
2018-01-15 08:00:00 -1.9 8 Norte 15 Norte 0 -- -- 98
2018-01-15 07:00:00 -2 3 Nordeste 9 Nordeste 0 -- -- 99
2018-01-15 06:00:00 -2.2 4 Norte 7 Norte 0 -- -- 99
2018-01-15 05:00:00 -2.2 3 Norte 6 Noroeste 0 -- -- 98
2018-01-15 04:00:00 -2.5 0 Calma 4 Norte 0 -- -- 96
2018-01-15 03:00:00 -1.9 0 Calma 5 Norte 0 -- -- 96
2018-01-15 02:00:00 -1.1 0 Calma 7 Este 0 -- -- 95
2018-01-15 01:00:00 -0.9 2 Sur 7 Noroeste 0 -- -- 95
2018-01-15 00:00:00 -0.7 0 Calma 8 Norte 0 -- -- 93
2018-01-14 23:00:00 -0.6 0 Calma 8 Sur 0 -- -- 92
2018-01-14 22:00:00 -0.4 3 Sudeste 6 Este 0 -- -- 94
2018-01-14 21:00:00 0.1 0 Calma 10 Norte 0 -- -- 92
2018-01-14 20:00:00 0.1 3 Sur 10 Nordeste 0 -- -- 91
2018-01-14 19:00:00 1 5 Norte 14 Norte 0 -- -- 90
2018-01-14 18:00:00 1.9 3 Norte 11 Norte 0 -- -- 88
2018-01-14 17:00:00 3.4 3 Norte 13 Noroeste 0 -- -- 79
2018-01-14 16:00:00 4.1 6 Norte 14 Noroeste 0 -- -- 84
2018-01-14 15:00:00 4.7 7 Oeste 14 Noroeste 0 -- -- 82
2018-01-14 14:00:00 3.4 8 Oeste 13 Oeste 0 -- -- 87
2018-01-14 13:00:00 2.4 4 Oeste 17 Oeste 0 -- -- 93
2018-01-14 12:00:00 2.1 6 Noroeste 14 Noroeste 0 -- -- 96
2018-01-14 11:00:00 1.7 3 Noroeste 10 Noroeste 0 -- -- 100
2018-01-14 10:00:00 1 0 Calma 6 Noroeste 0 -- -- 100
2018-01-14 09:00:00 0.6 3 Norte 9 Noroeste 0 -- -- 100
2018-01-14 08:00:00 1.1 5 Noroeste 14 Noroeste 0 -- -- 100
2018-01-14 07:00:00 0.8 6 Noroeste 14 Noroeste 0 -- -- 100
2018-01-14 06:00:00 0.7 6 Oeste 21 Noroeste 0 -- -- 100
2018-01-14 05:00:00 0.7 10 Noroeste 18 Noroeste 0 -- -- 100
2018-01-14 04:00:00 0.7 9 Noroeste 17 Noroeste 0 -- -- 100
2018-01-14 03:00:00 0.4 8 Noroeste 26 Oeste 0 -- -- 100
2018-01-14 02:00:00 0.3 10 Noroeste 24 Noroeste 0 -- -- 100
2018-01-14 01:00:00 0.6 14 Noroeste 24 Noroeste 0 -- -- 99
2018-01-14 00:00:00 0.9 9 Noroeste 24 Noroeste 0 -- -- 99
2018-01-13 23:00:00 1.3 12 Noroeste 25 Oeste 0 -- -- 100
2018-01-13 22:00:00 1.8 12 Noroeste 28 Oeste 0 -- -- 100
2018-01-13 21:00:00 1.1 5 Oeste 13 Oeste 0 -- -- 100
2018-01-13 20:00:00 0.7 2 Nordeste 13 Sur 0 -- -- 99
2018-01-13 19:00:00 0.5 8 Sur 24 Sur 0 -- -- 98
2018-01-13 18:00:00 1.7 16 Sur 22 Sur 0 -- -- 96
2018-01-13 17:00:00 2.7 8 Sur 22 Sudoeste 0 -- -- 87
2018-01-13 16:00:00 5.1 11 Sudoeste 29 Sur 0 -- -- 66
2018-01-13 15:00:00 6.8 10 Sudoeste 21 Sur 0 -- -- 66
2018-01-13 14:00:00 4.8 12 Sur 26 Sur 0 -- -- 72
2018-01-13 13:00:00 4 14 Sur 22 Sur 0 -- -- 73
2018-01-13 12:00:00 3.4 2 Sudeste 13 Sur 0 -- -- 71
2018-01-13 11:00:00 3 8 Sudeste 15 Sudeste 0 -- -- 72
2018-01-13 10:00:00 1.9 5 Sudeste 12 Sur 0 -- -- 79
2018-01-13 09:00:00 0.4 9 Sur 11 Sudeste 0 -- -- 89
2018-01-13 08:00:00 -2.1 3 Sudeste 10 Sudeste 0 -- -- 97
2018-01-13 07:00:00 -1.4 2 Sudeste 10 Sudeste 0 -- -- 91
2018-01-13 06:00:00 0.2 8 Sudeste 13 Sudeste 0 -- -- 91
2018-01-13 05:00:00 -0.9 2 Este 5 Noroeste 0 -- -- 98
2018-01-13 04:00:00 -1.1 3 Sudeste 4 Sudeste 0 -- -- 99
2018-01-13 03:00:00 -1.9 0 Calma 4 Sudeste 0 -- -- 98
2018-01-13 02:00:00 -1.6 0 Calma 4 Sudeste 0 -- -- 95
2018-01-13 01:00:00 -0.5 2 Este 5 Sudoeste 0 -- -- 92
2018-01-13 00:00:00 -0.9 2 Sur 4 Sudeste 0 -- -- 95
2018-01-12 23:00:00 -1.6 0 Calma 3 Sudoeste 0 -- -- 93
2018-01-12 22:00:00 -0.8 0 Calma 3 Sudoeste 0 -- -- 91
2018-01-12 21:00:00 0.5 0 Calma 5 Noroeste 0 -- -- 86
2018-01-12 20:00:00 1.8 3 Noroeste 6 Oeste 0 -- -- 83
2018-01-12 19:00:00 3.1 5 Noroeste 11 Oeste 0 -- -- 76
2018-01-12 18:00:00 4.2 6 Noroeste 15 Oeste 0 -- -- 70
2018-01-12 17:00:00 5.9 4 Noroeste 16 Noroeste 0 -- -- 65
2018-01-12 16:00:00 7.5 8 Noroeste 23 Noroeste 0 -- -- 57
2018-01-12 15:00:00 8 12 Norte 22 Noroeste 0 -- -- 59
2018-01-12 14:00:00 7.4 15 Norte 24 Norte 0 -- -- 62
2018-01-12 13:00:00 6.7 12 Norte 20 Noroeste 0 -- -- 66
2018-01-12 12:00:00 5.1 10 Norte 21 Noroeste 0 -- -- 73
2018-01-12 11:00:00 3.3 7 Noroeste 22 Norte 0 -- -- 81
2018-01-12 10:00:00 1 3 Norte 11 Norte 0 -- -- 92
2018-01-12 09:00:00 -1.7 3 Norte 12 Norte 0 -- -- 97
2018-01-12 08:00:00 -1.6 3 Noroeste 12 Norte 0 -- -- 95
2018-01-12 07:00:00 -1.4 4 Norte 12 Noroeste 0 -- -- 94
2018-01-12 06:00:00 -2 2 Noroeste 12 Noroeste 0 -- -- 93
2018-01-12 05:00:00 -1.7 4 Oeste 10 Noroeste 0 -- -- 91
2018-01-12 04:00:00 -1.9 0 Calma 8 Oeste 0 -- -- 91
2018-01-12 03:00:00 -1.3 2 Oeste 7 Sudoeste 0 -- -- 89
2018-01-12 02:00:00 -0.9 4 Oeste 16 Noroeste 0 -- -- 87
2018-01-12 01:00:00 -1.1 2 Noroeste 18 Noroeste 0 -- -- 87
2018-01-12 00:00:00 -0.6 3 Noroeste 15 Noroeste 0 -- -- 83
2018-01-11 23:00:00 0.4 9 Noroeste 17 Noroeste 0 -- -- 77
2018-01-11 22:00:00 1.4 10 Noroeste 20 Noroeste 0 -- -- 72
2018-01-11 21:00:00 1.2 9 Noroeste 22 Noroeste 0 -- -- 73
2018-01-11 20:00:00 1.4 13 Noroeste 21 Noroeste 0 -- -- 74
2018-01-11 19:00:00 1.9 10 Noroeste 21 Norte 0 -- -- 73
2018-01-11 18:00:00 2.6 9 Noroeste 27 Noroeste 0 -- -- 71
2018-01-11 17:00:00 5.4 16 Noroeste 37 Norte 0 -- -- 59
2018-01-11 16:00:00 5.8 15 Noroeste 36 Noroeste 0 -- -- 65
2018-01-11 15:00:00 5.1 17 Noroeste 40 Noroeste 0 -- -- 73
2018-01-11 14:00:00 4.5 18 Noroeste 41 Noroeste 0 -- -- 77
2018-01-11 13:00:00 3.2 12 Noroeste 28 Norte 0 -- -- 85
2018-01-11 12:00:00 2.3 15 Noroeste 28 Noroeste 0 -- -- 91
2018-01-11 11:00:00 1.6 14 Noroeste 28 Noroeste 0 -- -- 95
2018-01-11 10:00:00 0.8 14 Noroeste 36 Noroeste 0 -- -- 98
2018-01-11 09:00:00 0.6 10 Noroeste 26 Noroeste 0 -- -- 100
2018-01-11 08:00:00 0.6 13 Noroeste 25 Noroeste 0 -- -- 99
2018-01-11 07:00:00 0.2 11 Oeste 25 Oeste 0 -- -- 99
2018-01-11 06:00:00 0 8 Oeste 18 Oeste 0 -- -- 100
2018-01-11 05:00:00 -0.2 9 Oeste 20 Oeste 0 -- -- 96
2018-01-11 04:00:00 0.6 7 Oeste 18 Noroeste 0 -- -- 85
2018-01-11 03:00:00 0.3 9 Noroeste 17 Noroeste 0 -- -- 89
2018-01-11 02:00:00 0.6 11 Noroeste 25 Oeste 0 -- -- 89
2018-01-11 01:00:00 0.8 9 Noroeste 25 Noroeste 0 -- -- 90
2018-01-11 00:00:00 1.6 14 Noroeste 31 Oeste 0 -- -- 91
2018-01-10 23:00:00 2.7 18 Noroeste 32 Oeste 0 -- -- 94
2018-01-10 22:00:00 3.4 19 Noroeste 35 Noroeste 0 -- -- 95
2018-01-10 21:00:00 4.3 20 Noroeste 40 Noroeste 0 -- -- 98
2018-01-10 20:00:00 4.5 18 Oeste 36 Oeste 0 -- -- 100
2018-01-10 19:00:00 4.4 13 Oeste 30 Oeste 0 -- -- 97
2018-01-10 18:00:00 4.5 3 Oeste 19 Oeste 0 -- -- 99
2018-01-10 17:00:00 4.8 8 Oeste 26 Oeste 0 -- -- 98
2018-01-10 16:00:00 4.3 9 Oeste 21 Noroeste 0 -- -- 100
2018-01-10 15:00:00 3.4 10 Noroeste 23 Oeste 0 -- -- 100
2018-01-10 14:00:00 3 10 Oeste 27 Oeste 0 -- -- 100
2018-01-10 13:00:00 3.3 10 Oeste 30 Oeste 0 -- -- 100
2018-01-10 12:00:00 3.2 9 Oeste 20 Noroeste 0 -- -- 100
2018-01-10 11:00:00 2.8 7 Oeste 17 Noroeste 0 -- -- 100
2018-01-10 10:00:00 2.8 9 Noroeste 16 Oeste 0 -- -- 100
2018-01-10 09:00:00 2.7 8 Noroeste 18 Oeste 0 -- -- 100
2018-01-10 08:00:00 2.3 2 Noroeste 5 Noroeste 0 -- -- 100
2018-01-10 07:00:00 2.2 3 Noroeste 6 Noroeste 0 -- -- 100
2018-01-10 06:00:00 2.3 0 Calma 3 Sudoeste 0 -- -- 100
2018-01-10 05:00:00 2.4 0 Calma 6 Sudoeste 0 -- -- 100
2018-01-10 04:00:00 2.3 0 Calma 9 Sur 0 -- -- 100
2018-01-10 03:00:00 2 0 Calma 6 Sudeste 0 -- -- 100
2018-01-10 02:00:00 2.2 4 Sur 11 Sur 0 -- -- 100
2018-01-10 01:00:00 1.7 5 Sur 10 Sudeste 0 -- -- 100
2018-01-10 00:00:00 1.3 3 Sudeste 8 Sudeste 0 -- -- 100
2018-01-09 23:00:00 1.1 2 Sudeste 8 Sur 0 -- -- 100
2018-01-09 22:00:00 0.9 4 Sudeste 11 Sudeste 0 -- -- 100
2018-01-09 21:00:00 1.2 6 Sur 11 Sudoeste 0 -- -- 98
2018-01-09 20:00:00 1.5 2 Sur 14 Sudoeste 0 -- -- 97
2018-01-09 19:00:00 1.4 7 Sudoeste 18 Sudoeste 0 -- -- 95
2018-01-09 18:00:00 1.6 6 Sudoeste 15 Sudoeste 0 -- -- 92
2018-01-09 17:00:00 1.9 5 Sudoeste 17 Sudoeste 0 -- -- 89
2018-01-09 16:00:00 2.3 6 Sudoeste 23 Sudoeste 0 -- -- 89
2018-01-09 15:00:00 1.9 6 Sudoeste 14 Sudoeste 0 -- -- 90
2018-01-09 14:00:00 1.5 4 Sudoeste 14 Sudoeste 0 -- -- 93
2018-01-09 13:00:00 0.9 4 Oeste 10 Sudoeste 0 -- -- 94
2018-01-09 12:00:00 -0.1 4 Sudoeste 10 Sudoeste 0 -- -- 95
2018-01-09 11:00:00 0.3 5 Sur 11 Sur 0 -- -- 96
2018-01-09 10:00:00 -0.6 0 Calma 2 Este 0 -- -- 100
2018-01-09 09:00:00 -2.5 0 Calma 2 Oeste 0 -- -- 100
2018-01-09 08:00:00 -2.5 0 Calma 3 Sudeste 0 -- -- 99
2018-01-09 07:00:00 -1.3 0 Calma 4 Sudeste 0 -- -- 100
2018-01-09 06:00:00 -2.6 0 Calma 3 Norte 0 -- -- 100
2018-01-09 05:00:00 -4.5 0 Calma 2 Sudeste 0 -- -- 98
2018-01-09 04:00:00 -3.8 0 Calma 4 Noroeste 0 -- -- 98
2018-01-09 03:00:00 -3.9 0 Calma 2 Sudeste 0 -- -- 98
2018-01-09 02:00:00 -3.6 0 Calma 2 Sur 0 -- -- 97
2018-01-09 01:00:00 -2.8 2 Sur 4 Sudeste 0 -- -- 98
2018-01-09 00:00:00 -2.7 0 Calma 2 Noroeste 0 -- -- 97
2018-01-08 23:00:00 -2.3 0 Calma 3 Sudeste 0 -- -- 97
2018-01-08 22:00:00 -2 0 Calma 2 Sudeste 0 -- -- 97
2018-01-08 21:00:00 -1.5 0 Calma 3 Sur 0 -- -- 95
2018-01-08 20:00:00 -0.7 0 Calma 6 Norte 0 -- -- 93
2018-01-08 19:00:00 1.5 3 Norte 9 Noroeste 0 -- -- 87
2018-01-08 18:00:00 2.9 3 Noroeste 10 Noroeste 0 -- -- 82
2018-01-08 17:00:00 6.7 5 Oeste 9 Noroeste 0 -- -- 65
2018-01-08 16:00:00 4.9 3 Sur 12 Este 0 -- -- 71
2018-01-08 15:00:00 5.9 5 Este 12 Nordeste 0 -- -- 67
2018-01-08 14:00:00 5.7 4 Sudeste 11 Sudeste 0 -- -- 69
2018-01-08 13:00:00 5 5 Este 14 Sudeste 0 -- -- 74
2018-01-08 12:00:00 4.8 9 Sudeste 21 Este 0 -- -- 74
2018-01-08 11:00:00 3 9 Sudeste 19 Sudeste 0 -- -- 82
2018-01-08 10:00:00 0.6 7 Sudeste 17 Este 0 -- -- 90
2018-01-08 09:00:00 -2.1 5 Sudeste 8 Sudeste 0 -- -- 95
2018-01-08 08:00:00 -1.6 3 Sudeste 16 Este 0 -- -- 93
2018-01-08 07:00:00 -1.1 4 Sudeste 16 Sudeste 0 -- -- 92
2018-01-08 06:00:00 -1.1 4 Sudeste 13 Sudeste 0 -- -- 92
2018-01-08 05:00:00 -1.1 6 Sudeste 14 Este 0 -- -- 92
2018-01-08 04:00:00 -1 5 Sudeste 17 Este 0 -- -- 94
2018-01-08 03:00:00 -1.3 5 Sudeste 12 Este 0 -- -- 95
2018-01-08 02:00:00 -1.4 5 Sudeste 8 Sudeste 0 -- -- 98
2018-01-08 01:00:00 -2.2 5 Sur 8 Sur 0 -- -- 100
2018-01-08 00:00:00 -2.5 0 Calma 4 Oeste 0 -- -- 94
2018-01-07 23:00:00 -0.4 4 Sudoeste 22 Sudeste 0 -- -- 97
2018-01-07 22:00:00 -0.6 7 Sudeste 12 Sudeste 0 -- -- 95
2018-01-07 21:00:00 -0.8 5 Sur 9 Sur 0 -- -- 97
2018-01-07 20:00:00 -0.3 2 Este 7 Sudeste 0 -- -- 97
2018-01-07 19:00:00 0 5 Sudeste 9 Sudeste 0 -- -- 97
2018-01-07 18:00:00 0.6 5 Sudeste 14 Sudeste 0 -- -- 91
2018-01-07 17:00:00 1.3 10 Sudeste 18 Sudeste 0 -- -- 94
2018-01-07 16:00:00 1.1 10 Sudeste 24 Sudeste 0 -- -- 94
2018-01-07 15:00:00 0.9 13 Sudeste 24 Sudeste 0 -- -- 97
2018-01-07 14:00:00 0.4 15 Sudeste 22 Sudeste 0 -- -- 98
2018-01-07 13:00:00 0.3 14 Sur 27 Sur 0 -- -- 100
2018-01-07 12:00:00 0.2 15 Oeste 23 Oeste 0 -- -- 100
2018-01-07 11:00:00 -0.2 12 Oeste 21 Oeste 0 -- -- 100
2018-01-07 10:00:00 -0.4 9 Oeste 18 Oeste 0 -- -- 100
2018-01-07 09:00:00 -0.5 6 Oeste 15 Oeste 0 -- -- 100
2018-01-07 08:00:00 -0.4 9 Oeste 18 Oeste 0 -- -- 100
2018-01-07 07:00:00 -0.3 6 Oeste 13 Oeste 0 -- -- 100
2018-01-07 06:00:00 -0.4 4 Oeste 10 Oeste 0 -- -- 100
2018-01-07 05:00:00 -0.5 5 Oeste 9 Oeste 0 -- -- 100
2018-01-07 04:00:00 -0.6 0 Calma 9 Oeste 0 -- -- 100
2018-01-07 03:00:00 -0.6 4 Oeste 10 Oeste 0 -- -- 100
2018-01-07 02:00:00 -0.5 3 Oeste 10 Oeste 0 -- -- 100
2018-01-07 01:00:00 -0.5 3 Oeste 10 Oeste 0 -- -- 100
2018-01-07 00:00:00 -0.2 4 Sudoeste 12 Sudoeste 0 -- -- 100
2018-01-06 23:00:00 0.3 3 Sudoeste 14 Sudoeste 0 -- -- 100
2018-01-06 22:00:00 0.4 4 Sur 14 Sudoeste 0 -- -- 100
2018-01-06 21:00:00 0.1 5 Sudoeste 13 Sudoeste 0 -- -- 100
2018-01-06 20:00:00 0.2 5 Sudoeste 14 Sudoeste 0 -- -- 100
2018-01-06 19:00:00 0.8 4 Oeste 15 Oeste 0 -- -- 98
2018-01-06 18:00:00 2.7 4 Sudoeste 12 Sudoeste 0 -- -- 97
2018-01-06 17:00:00 3.8 4 Sudoeste 21 Sur 0 -- -- 96
2018-01-06 16:00:00 4.5 17 Sudeste 33 Sudeste 0 -- -- 93
2018-01-06 15:00:00 5.8 12 Sudeste 26 Sudeste 0 -- -- 87
2018-01-06 14:00:00 6.1 6 Sudeste 17 Sur 0 -- -- 90
2018-01-06 13:00:00 7.1 8 Sur 15 Sur 0 -- -- 84
2018-01-06 12:00:00 6.5 8 Sudeste 19 Sur 0 -- -- 84
2018-01-06 11:00:00 5.7 10 Sudeste 24 Sudeste 0 -- -- 87
2018-01-06 10:00:00 5.1 14 Sudeste 32 Sur 0 -- -- 88
2018-01-06 09:00:00 4.8 18 Sur 33 Sudeste 0 -- -- 89
2018-01-06 08:00:00 4.9 15 Sudeste 22 Sudeste 0 -- -- 94
2018-01-06 07:00:00 4.7 13 Sudeste 21 Sudeste 0 -- -- 97
2018-01-06 06:00:00 4.9 12 Sur 21 Sur 0 -- -- 97
2018-01-06 05:00:00 5.1 15 Sur 30 Sur 0 -- -- 97
2018-01-06 04:00:00 5.8 18 Sur 39 Sudeste 0 -- -- 94
2018-01-06 03:00:00 5.9 17 Sur 36 Sur 0 -- -- 93
2018-01-06 02:00:00 6 14 Sur 29 Sur 0 -- -- 95
2018-01-06 01:00:00 5.8 17 Sur 27 Sur 0 -- -- 98
2018-01-06 00:00:00 5.8 16 Sur 28 Sur 0 -- -- 97
2018-01-05 23:00:00 5.9 13 Sur 24 Sur 0 -- -- 95
2018-01-05 22:00:00 6 10 Sudeste 25 Sur 0 -- -- 93
2018-01-05 21:00:00 6.2 12 Sur 23 Sur 0 -- -- 91
2018-01-05 20:00:00 6.5 11 Sur 24 Sur 0 -- -- 87
2018-01-05 19:00:00 6.9 7 Sur 18 Sudoeste 0 -- -- 85
2018-01-05 18:00:00 7.1 9 Sudoeste 21 Sudoeste 0 -- -- 82
2018-01-05 17:00:00 7.4 11 Sudoeste 30 Sudoeste 0 -- -- 81
2018-01-05 16:00:00 7.6 15 Sudoeste 28 Sudoeste 0 -- -- 76
2018-01-05 15:00:00 7.9 16 Sudoeste 30 Sudoeste 0 -- -- 79
2018-01-05 14:00:00 8 11 Oeste 29 Oeste 0 -- -- 75
2018-01-05 13:00:00 7.9 9 Oeste 27 Oeste 0 -- -- 81
2018-01-05 12:00:00 7.4 11 Oeste 30 Oeste 0 -- -- 83
2018-01-05 11:00:00 7.2 13 Oeste 25 Sudoeste 0 -- -- 83
2018-01-05 10:00:00 6.6 6 Oeste 30 Oeste 0 -- -- 86
2018-01-05 09:00:00 6.1 10 Oeste 26 Oeste 0 -- -- 91
2018-01-05 08:00:00 6.4 9 Oeste 24 Oeste 0 -- -- 92
2018-01-05 07:00:00 6.1 3 Sudoeste 12 Oeste 0 -- -- 92
2018-01-05 06:00:00 6.4 2 Oeste 19 Oeste 0 -- -- 93
2018-01-05 05:00:00 6.7 7 Oeste 24 Noroeste 0 -- -- 89
2018-01-05 04:00:00 6.9 10 Oeste 24 Oeste 0 -- -- 90
2018-01-05 03:00:00 7 8 Oeste 23 Oeste 0 -- -- 92
2018-01-05 02:00:00 7 9 Noroeste 21 Oeste 0 -- -- 93
2018-01-05 01:00:00 7.1 8 Noroeste 19 Oeste 0 -- -- 96
2018-01-05 00:00:00 7.3 9 Oeste 21 Oeste 0 -- -- 96
2018-01-04 23:00:00 7.3 10 Noroeste 22 Oeste 0 -- -- 95
2018-01-04 22:00:00 7.6 10 Oeste 22 Noroeste 0 -- -- 95
2018-01-04 21:00:00 8.1 14 Noroeste 26 Noroeste 0 -- -- 92
2018-01-04 20:00:00 7.7 8 Noroeste 16 Noroeste 0 -- -- 95
2018-01-04 19:00:00 8 5 Noroeste 11 Noroeste 0 -- -- 96
2018-01-04 18:00:00 8.3 4 Noroeste 13 Oeste 0 -- -- 94
2018-01-04 17:00:00 8.4 6 Noroeste 20 Oeste 0 -- -- 93
2018-01-04 16:00:00 8.4 10 Oeste 25 Noroeste 0 -- -- 100
2018-01-04 15:00:00 8.3 9 Noroeste 27 Noroeste 0 -- -- 100
2018-01-04 14:00:00 8.1 12 Noroeste 22 Oeste 0 -- -- 100
2018-01-04 13:00:00 8 12 Noroeste 23 Oeste 0 -- -- 100
2018-01-04 12:00:00 7.7 9 Noroeste 24 Oeste 0 -- -- 100
2018-01-04 11:00:00 7.4 8 Noroeste 15 Oeste 0 -- -- 100
2018-01-04 10:00:00 7.4 9 Oeste 16 Oeste 0 -- -- 100
2018-01-04 09:00:00 7.6 8 Oeste 16 Noroeste 0 -- -- 100
2018-01-04 08:00:00 7.6 8 Noroeste 15 Oeste 0 -- -- 100
2018-01-04 07:00:00 7.6 8 Noroeste 15 Oeste 0 -- -- 100
2018-01-04 06:00:00 7.8 8 Oeste 15 Noroeste 0 -- -- 100
2018-01-04 05:00:00 7.8 10 Noroeste 16 Norte 0 -- -- 100
2018-01-04 04:00:00 8 7 Noroeste 12 Noroeste 0 -- -- 100
2018-01-04 03:00:00 8 7 Noroeste 22 Noroeste 0 -- -- 100
2018-01-04 02:00:00 8 9 Noroeste 14 Oeste 0 -- -- 100
2018-01-04 01:00:00 7.9 5 Noroeste 12 Noroeste 0 -- -- 100
2018-01-04 00:00:00 7.9 5 Noroeste 11 Noroeste 0 -- -- 100
2018-01-03 23:00:00 7.8 6 Noroeste 14 Noroeste 0 -- -- 100
2018-01-03 22:00:00 7.8 8 Oeste 20 Noroeste 0 -- -- 100
2018-01-03 21:00:00 8.2 6 Noroeste 20 Noroeste 0 -- -- 99
2018-01-03 20:00:00 8.6 6 Noroeste 13 Oeste 0 -- -- 99
2018-01-03 19:00:00 8.9 6 Noroeste 19 Noroeste 0 -- -- 99
2018-01-03 18:00:00 9 5 Noroeste 13 Noroeste 0 -- -- 100
2018-01-03 17:00:00 9 10 Noroeste 17 Noroeste 0 -- -- 100
2018-01-03 16:00:00 8.8 8 Noroeste 21 Noroeste 0 -- -- 100
2018-01-03 15:00:00 8.5 8 Noroeste 21 Noroeste 0 -- -- 100
2018-01-03 14:00:00 8.4 9 Noroeste 18 Noroeste 0 -- -- 100
2018-01-03 13:00:00 8 6 Noroeste 15 Norte 0 -- -- 100
2018-01-03 12:00:00 7.7 4 Oeste 14 Noroeste 0 -- -- 100
2018-01-03 11:00:00 7.4 6 Noroeste 19 Noroeste 0 -- -- 100
2018-01-03 10:00:00 7.3 10 Noroeste 19 Oeste 0 -- -- 100
2018-01-03 09:00:00 7.1 9 Noroeste 16 Noroeste 0 -- -- 100
2018-01-03 08:00:00 7.1 5 Noroeste 8 Noroeste 0 -- -- 100
2018-01-03 07:00:00 6.7 3 Oeste 10 Noroeste 0 -- -- 100
2018-01-03 06:00:00 6.7 3 Noroeste 9 Noroeste 0 -- -- 100
2018-01-03 05:00:00 6.5 4 Oeste 17 Noroeste 0 -- -- 100
2018-01-03 04:00:00 6.3 9 Noroeste 14 Oeste 0 -- -- 100
2018-01-03 03:00:00 6.2 5 Oeste 11 Noroeste 0 -- -- 100
2018-01-03 02:00:00 6.3 2 Noroeste 9 Noroeste 0 -- -- 100
2018-01-03 01:00:00 6.4 3 Noroeste 15 Noroeste 0 -- -- 100
2018-01-03 00:00:00 6.6 6 Noroeste 14 Noroeste 0 -- -- 99
2018-01-02 23:00:00 6.6 6 Noroeste 14 Noroeste 0 -- -- 99
2018-01-02 22:00:00 6.2 5 Noroeste 13 Noroeste 0 -- -- 97
2018-01-02 21:00:00 5.9 5 Noroeste 12 Noroeste 0 -- -- 95
2018-01-02 20:00:00 6.3 5 Noroeste 12 Noroeste 0 -- -- 91
2018-01-02 19:00:00 6.9 5 Oeste 13 Oeste 0 -- -- 86
2018-01-02 18:00:00 8.2 8 Oeste 18 Noroeste 0 -- -- 83
2018-01-02 17:00:00 8.5 8 Noroeste 21 Noroeste 0 -- -- 83
2018-01-02 16:00:00 8.7 11 Noroeste 20 Noroeste 0 -- -- 81
2018-01-02 15:00:00 7.8 9 Noroeste 18 Oeste 0 -- -- 86
2018-01-02 14:00:00 8.2 7 Oeste 18 Oeste 0 -- -- 84
2018-01-02 13:00:00 5.7 7 Oeste 15 Oeste 0 -- -- 93
2018-01-02 12:00:00 4.3 5 Oeste 12 Oeste 0 -- -- 97
2018-01-02 11:00:00 3.2 4 Oeste 17 Sudoeste 0 -- -- 98
2018-01-02 10:00:00 4.2 6 Oeste 13 Oeste 0 -- -- 95
2018-01-02 09:00:00 1.9 3 Oeste 10 Sudoeste 0 -- -- 98
2018-01-02 08:00:00 2.2 4 Sudoeste 14 Oeste 0 -- -- 97
2018-01-02 07:00:00 2.9 4 Sudoeste 19 Noroeste 0 -- -- 96
2018-01-02 06:00:00 4.2 9 Noroeste 22 Noroeste 0 -- -- 95
2018-01-02 05:00:00 4.5 9 Noroeste 29 Noroeste 0 -- -- 96
2018-01-02 04:00:00 4.6 12 Noroeste 27 Oeste 0 -- -- 97
2018-01-02 03:00:00 4.6 10 Oeste 21 Noroeste 0 -- -- 97
2018-01-02 02:00:00 4.9 12 Noroeste 26 Noroeste 0 -- -- 98
2018-01-02 01:00:00 4.9 9 Noroeste 27 Noroeste 0 -- -- 99
2018-01-02 00:00:00 4.6 11 Noroeste 23 Noroeste 0 -- -- 99
2018-01-01 23:00:00 4 5 Oeste 14 Oeste 0 -- -- 98
2018-01-01 22:00:00 4.1 4 Oeste 14 Noroeste 0 -- -- 97
2018-01-01 21:00:00 4.3 8 Noroeste 27 Oeste 0 -- -- 95
2018-01-01 20:00:00 4.7 12 Oeste 26 Oeste 0 -- -- 92
2018-01-01 19:00:00 5 12 Noroeste 27 Oeste 0 -- -- 89
2018-01-01 18:00:00 5.7 12 Oeste 24 Oeste 0 -- -- 83
2018-01-01 17:00:00 6.8 7 Noroeste 27 Noroeste 0 -- -- 72
2018-01-01 16:00:00 7.8 10 Noroeste 36 Oeste 0 -- -- 68
2018-01-01 15:00:00 7.3 20 Oeste 37 Oeste 0 -- -- 66
2018-01-01 14:00:00 6.4 15 Oeste 32 Noroeste 0 -- -- 72
2018-01-01 13:00:00 6 9 Oeste 24 Oeste 0 -- -- 75
2018-01-01 12:00:00 6.3 10 Oeste 21 Sudoeste 0 -- -- 73
2018-01-01 11:00:00 4.5 3 Oeste 8 Oeste 0 -- -- 82
2018-01-01 10:00:00 1 2 Noroeste 8 Oeste 0 -- -- 95
2018-01-01 09:00:00 -2.7 0 Calma 2 Sudoeste 0 -- -- 98
2018-01-01 08:00:00 -2.5 0 Calma 2 Oeste 0 -- -- 95
2018-01-01 07:00:00 -1.1 0 Calma 7 Oeste 0 -- -- 93
2018-01-01 06:00:00 -0.4 3 Oeste 9 Oeste 0 -- -- 94
2018-01-01 05:00:00 -0.4 0 Calma 8 Oeste 0 -- -- 94
2018-01-01 04:00:00 0 4 Oeste 10 Oeste 0 -- -- 94
2018-01-01 03:00:00 0.9 3 Noroeste 16 Oeste 0 -- -- 90
2018-01-01 02:00:00 1.7 10 Noroeste 21 Oeste 0 -- -- 89
2018-01-01 01:00:00 2.3 10 Noroeste 22 Noroeste 0 -- -- 89
2018-01-01 00:00:00 3.1 16 Noroeste 30 Noroeste 0 -- -- 89
2017-12-31 23:00:00 3.7 15 Noroeste 26 Noroeste 0 -- -- 91
2017-12-31 22:00:00 4.8 19 Noroeste 32 Noroeste 0 -- -- 93
2017-12-31 21:00:00 5.6 18 Noroeste 53 Noroeste 0 -- -- 93
2017-12-31 20:00:00 6.5 21 Noroeste 38 Oeste 0 -- -- 93
2017-12-31 19:00:00 7.4 18 Oeste 38 Oeste 0 -- -- 89
2017-12-31 18:00:00 7.5 14 Oeste 30 Oeste 0.2 -- -- 87
2017-12-31 17:00:00 7.7 9 Sudoeste 35 Oeste 0 -- -- 87
2017-12-31 16:00:00 7.9 17 Oeste 36 Oeste 0 -- -- 85
2017-12-31 15:00:00 8.3 13 Oeste 33 Oeste 0 -- -- 84
2017-12-31 14:00:00 8.2 9 Oeste 21 Sudoeste 0 -- -- 86
2017-12-31 13:00:00 7.4 5 Oeste 17 Oeste 0 -- -- 91
2017-12-31 12:00:00 6.5 7 Oeste 18 Noroeste 0 -- -- 96
2017-12-31 11:00:00 5.7 4 Oeste 16 Sudoeste 0 -- -- 99
2017-12-31 10:00:00 5.8 2 Noroeste 4 Sudeste 0 -- -- 100
2017-12-31 09:00:00 5.8 0 Calma 8 Oeste 0 -- -- 100
2017-12-31 08:00:00 6.3 0 Calma 6 Sudoeste 0 -- -- 100
2017-12-31 07:00:00 6.2 5 Sur 10 Sudoeste 0 -- -- 100
2017-12-31 06:00:00 5.9 2 Noroeste 7 Oeste 0 -- -- 100
2017-12-31 05:00:00 5.8 0 Calma 4 Sudeste 0 -- -- 100
2017-12-31 04:00:00 5.7 2 Sur 3 Sur 0 -- -- 100
2017-12-31 03:00:00 4.9 2 Sur 5 Noroeste 0 -- -- 100
2017-12-31 02:00:00 5.3 3 Sudoeste 8 Sudoeste 0 -- -- 100
2017-12-31 01:00:00 4.2 2 Sudeste 4 Sudeste 0 -- -- 100